Extreme weather reports worldwide

High gusts

Station
 
Location
 
Name
 
Wind
Knots
Gust
Knots
Vis
SM
Temp/Dew
C
Baro
inHg
METAR
 
AOK LGKP Karpathos Island, GR Karpathos Airport 29 39 29/20 29.62 LGKP 151350Z 28029G39KT CAVOK 29/20 Q1003
MAD LEMD Madrid, ES Adolfo Suárez Madrid–Barajas Airport 18 33 31/15 29.97 LEMD 151400Z 22018G33KT 200V270 9999 SCT050 31/15 Q1015 WS R14R WS R18L NOSIG
CWVH 17 32 / CWVH 151400Z AUTO 27017G32KT ////SM ////// ///// A////
TOJ LETO Madrid, ES Torrejón Airport 21 31 30/14 29.97 LETO 151400Z 23021G31KT 190V280 9999 FEW055 30/14 Q1015 NOSIG
YPH CYPH Inukjuak, CA Inukjuak Airport 25 30 9 14/7 29.68 CYPH 151400Z AUTO 07025G30KT 9SM SCT220 SCT240 14/07 A2968 RMK SLP053 DENSITY ALT 300FT

Station
 
Location
 
Name
 
Wind
Knots
Gust
Knots
Vis
SM
Temp/Dew
C
Baro
inHg
METAR
 
EZS LTCA Elazığ, TR Elazığ Airport 20 30 32/13 29.65 LTCA 151401Z 15020G30KT 9999 FEW027CB BKN033 32/13 Q1004 TEMPO -TSRA RMK RWY07 14016G26KT 100V190 1CB027 5CU033
RGS LEBG Burgos, ES Burgos Airport 19 29 24/13 30.00 LEBG 151400Z 23019G29KT 190V270 9999 SCT038 SCT050 24/13 Q1016
PAS LGPA Paros Island, GR Paros National Airport 18 28 29/17 29.73 LGPA 151350Z 35018G28KT CAVOK 29/17 Q1007
UAR GMFB Bouarfa, MA Bouarfa Airport 17 28 2.49 41/0 30.09 GMFB 151400Z 21017G28KT 4000 SA SCT030 41/M00 Q1019 NOSIG
JMK LGMK Mykonos Island, GR Mikonos Airport 17 27 29/15 29.73 LGMK 151350Z 36017G27KT CAVOK 29/15 Q1007
JTR LGSR Santorini Island, GR Santorini Airport 17 27 30/20 29.70 LGSR 151350Z 34017G27KT CAVOK 30/20 Q1006
K0CO 18 27 8/1 30.77 K0CO 151355Z AUTO 29018G27KT CLR 08/01 A3077 RMK AO2 PWINO
ESU GMMI Essaouira, MA Mogador Airport 15 27 4.97 33/14 29.94 GMMI 151400Z 36015G27KT 8000 NSC 33/14 Q1014 NOSIG
LECV Colmenar Viejo, ES Base Aérea de Colmenar Viejo 14 27 26/13 30.03 LECV 151400Z 21014G27KT 9999 FEW050TCU SCT060 26/13 Q1017
SRZ SLET Santa Cruz, BO El Trompillo Airport 15 26 16/1 30.32 SLET 151400Z 17015G26KT 9999 BKN070 16/01 Q1027
PQC VVPQ Phu Quoc Island, VN Phu Quoc International Airport 15 26 3.73 25/24 29.73 VVPQ 151400Z 31015G26KT 290V350 6000 TSRA SCT013 FEW015CB BKN040 25/24 Q1007 TEMPO TL1500 29015G30KT 3000 TSRA
LND KLND Lander, US Hunt Field 12 25 24/6 30.20 KLND 151353Z AUTO 25012G25KT 10SM FEW120 24/06 A3020 RMK AO2 RAB18E30 SLP147 P0000 T02440061
CDB PACD Cold Bay, US Cold Bay Airport 20 25 7/6 29.84 PACD 151353Z AUTO 26020G25KT 10SM -RA OVC009 08/07 A2984 RMK AO2 CIG 007V012 SLP105 P0003 T00780067 TSNO $
NKW FJDG Diego Garcia, IO Diego Garcia Naval Support Facility 15 25 27/25 29.81 FJDG 151355Z 19015G25KT 9999 FEW019 SCT040 BKN095 27/26 A2981 RMK SLP091 T02720256
TDD SLTR Trinidad, BO Teniente Av. Jorge Henrich Arauz Airport 15 25 4.97 20/5 30.24 SLTR 151400Z 14015G25KT 8000 BKN080 20/05 Q1024
IXE VOML Mangalore, IN Mangalore International Airport 18 25 1.55 25/24 29.68 VOML 151400Z 23018G25KT 2500 -RA BR SCT002 SCT012 OVC080 25/24 Q1005 NOSIG
ATH LGAV Athens, GR Eleftherios Venizelos International Airport 14 24 34/4 29.79 LGAV 151350Z 04014G24KT CAVOK 34/04 Q1009 NOSIG
HTY LTDA Hatay, TR Hatay Airport 13 24 34/21 29.53 LTDA 151350Z 28013G24KT 220V340 9999 SCT040 34/21 Q1000 NOSIG
KC99 15 24 12/3 30.63 KC99 151353Z AUTO 29015G24KT 10SM CLR 12/03 A3063 RMK AO2
DTW KDTW Detroit, US Detroit Metropolitan Wayne County Airport 16 24 5 22/19 29.85 KDTW 151353Z 25016G24KT 5SM -RA FEW015 BKN028 OVC035 22/19 A2985 RMK AO2 RAB51 SLP106 P0000 T02220194
K1CW 19 24 27/7 30.08 K1CW 151355Z AUTO 30019G24KT 10SM CLR 28/07 A3008 RMK AO2 SLP107 T02760074 $
MLN GEML Melilla, ES Melilla Airport 13 24 32/8 29.94 GEML 151400Z 30013G24KT 250V350 CAVOK 32/08 Q1014
VVI SLVR Santa Cruz, BO Viru Viru International Airport 12 24 16/1 30.32 SLVR 151400Z 17012G24KT 9999 BKN080 16/01 Q1027
TRZ VOTR Tiruchirappally, IN Tiruchirapally Civil Airport Airport 14 24 3.11 30/23 29.65 VOTR 151400Z 26014G24KT 5000 HZ SCT016 BKN100 30/23 Q1004 NOSIG
KTTF Monroe, US Custer Airport 15 24 24/19 29.85 KTTF 151415Z AUTO 28015G24KT 10SM SCT020 SCT029 24/20 A2985 RMK AO2 T02410195
K4V1 17 23 27/5 30.25 K4V1 151355Z AUTO 28017G23KT 10SM CLR 27/05 A3025 RMK AO2
YAB CYAB Arctic Bay, CA Arctic Bay Airport 12 23 15 10/7 29.44 CYAB 151400Z 27012G23KT 210V300 15SM OVC030 10/07 A2944 RMK SC8 RAG BASE SLP971
HRM DAFH DZ Hassi R'Mel Airport 12 23 / 30.00 DAFH 151400Z 26012G23KT 220V300 CAVOK 44/// Q1016
SYT LFLN Saint-Yan, FR Saint-Yan Airport 12 23 21/18 29.82 LFLN 151400Z AUTO 27012G23KT 220V300 9999 TSRA ///CB 21/18 Q1010 TEMPO VRB20G45KT 3000 TSRA
SVO UUEE Moscow, RU Sheremetyevo International Airport 14 23 29/19 29.94 UUEE 151400Z 32007G12MPS 9999 SCT036TCU 29/19 Q1014 R06R/CLRD62 R06C/CLRD62 NOSIG
KIBM Kimball, US Kimball Municipal Robert E Arraj Field 17 23 29/8 30.13 KIBM 151415Z AUTO 31017G23KT 10SM CLR 29/08 A3013 RMK AO2 T02930083
CYS KCYS Cheyenne, US Cheyenne Regional Jerry Olson Field 14 22 25/6 30.22 KCYS 151353Z 30014G22KT 10SM CLR 26/06 A3022 RMK AO2 SLP129 T02560061
HBR KHBR Hobart, US Hobart Regional Airport 17 22 7 28/19 29.99 KHBR 151353Z AUTO 20017G22KT 7SM CLR 29/19 A2999 RMK AO2 SLP134 T02890194 $
MPO KMPO Mount Pocono, US Pocono Mountains Municipal Airport 8 22 26/19 29.99 KMPO 151353Z AUTO 25008G22KT 10SM FEW080 26/19 A2999 RMK AO2 SLP139 T02610194
PWA KPWA Oklahoma City, US Wiley Post Airport 15 22 28/20 29.97 KPWA 151353Z 19015G22KT 10SM CLR 28/20 A2997 RMK AO2 SLP128 T02830200
TDZ KTDZ Toledo, US Toledo Executive Airport 13 22 25/18 29.89 KTDZ 151353Z AUTO 26013G22KT 10SM FEW090 26/19 A2989 RMK AO2 SLP115 T02560189
CWGZ 13 22 6 6/1 29.41 CWGZ 151400Z 09013G22KT 060V150 6SM -RA BR SCT008 BKN014 BKN026 OVC035 06/01 A2941 RMK FG1ST2ST2SC2SC1 SLP966
CWPC 14 22 23/21 CWPC 151400Z AUTO 22014G22KT 23/21 RMK AO1 PK WND 22027/1314 SLP129 T02340212 50001
YZF CYZF Yellowknife, CA Yellowknife Airport 15 22 15 17/9 29.76 CYZF 151400Z 14015G22KT 15SM FEW240 17/09 A2976 RMK CI1 SLP085 DENSITY ALT 1300FT
TOL KTOL Toledo, US Toledo Express Airport 11 22 23/19 29.89 KTOL 151400Z 27011G22KT 10SM BKN019 24/19 A2989 RMK AO2 T02390194 $
SCQ LEST Santiago de Compostela, ES Santiago de Compostela Airport 12 22 19/14 30.03 LEST 151400Z 23012G22KT 170V280 9999 SCT025 BKN035 19/14 Q1017 NOSIG
ADW KADW Camp Springs, US Joint Base Andrews 12 21 33/18 29.93 KADW 151355Z 33012G21KT 10SM CLR 33/19 A2993 RMK AO2A SLP139 T03310188 $
YAH CYAH La Grande-4, CA La Grande-4 Airport 13 21 9 17/13 29.54 CYAH 151400Z AUTO 25013G21KT 9SM OVC018 17/13 A2954 RMK SLP010 DENSITY ALT 1900FT
YQG CYQG Windsor, CA Windsor Airport 14 21 9 24/20 29.83 CYQG 151400Z AUTO 23014G21KT 9SM SCT055 BKN068 BKN140 OVC160 24/20 A2983 RMK SLP101 DENSITY ALT 2000FT
URMG Grozny, RU Khankala Air Base 12 21 35/9 29.76 URMG 151400Z 10006G11MPS 070V130 CAVOK 35/09 Q1008 R08/090070 NOSIG RMK QFE741/0989